Terminal Aerodrome Forecast
Issued by NWS Wilmington, OH

Home | Current Version | Previous Version | Text Only | Print | Product List | Glossary On
Versions: 1 2 3 4 5 6 7 8 9 10 11 12 13 14 15 16 17 18 19 20 21 22 23 24 25 26 27 28 29 30 31
912
FTUS41 KILN 291957 AAC
TAFILN
TAF AMD
KILN 291957Z 2920/3018 20008KT P6SM VCTS SCT025CB BKN035
      TEMPO 2920/2921 02010G20KT 5SM -TSRA BKN025CB
     FM300300 00000KT P6SM VCSH SCT035 BKN080
     FM300800 00000KT 4SM BR SCT015 BKN150
      TEMPO 3009/3012 1SM BR BKN002
     FM301300 24005KT P6SM SCT035=

USA.gov is the U.S. government's official web portal to all federal, state and local government web resources and services.